createdAt,value
2017-12-01T00:01:00.369Z,1.50
2017-12-01T00:03:28.689Z,1.40
2017-12-01T00:05:57.786Z,1.40
2017-12-01T00:08:26.107Z,1.40
2017-12-01T00:10:54.408Z,1.40
2017-12-01T00:13:22.736Z,1.40
2017-12-01T00:15:51.061Z,1.30
2017-12-01T00:18:19.369Z,1.30
2017-12-01T00:20:47.712Z,1.30
2017-12-01T00:23:16.048Z,1.30
2017-12-01T00:25:44.667Z,1.30
2017-12-01T00:28:12.984Z,1.30
2017-12-01T00:30:41.310Z,1.20
2017-12-01T00:33:10.417Z,1.20
2017-12-01T00:35:38.704Z,1.20
2017-12-01T00:38:07.013Z,1.20
2017-12-01T00:40:35.345Z,1.20
2017-12-01T00:43:03.678Z,1.20
2017-12-01T00:45:32.857Z,1.20
2017-12-01T00:48:01.961Z,1.20
2017-12-01T00:50:30.279Z,1.10
2017-12-01T00:52:59.385Z,1.20
2017-12-01T00:55:28.490Z,1.20
2017-12-01T00:57:56.786Z,1.20
2017-12-01T01:00:25.844Z,1.10
2017-12-01T01:02:54.174Z,1.10
2017-12-01T01:05:22.468Z,1.10
2017-12-01T01:07:50.760Z,1.10
2017-12-01T01:10:19.075Z,1.10
2017-12-01T01:12:47.448Z,1.00
2017-12-01T01:15:15.812Z,1.00
2017-12-01T01:17:44.147Z,1.00
2017-12-01T01:20:12.460Z,0.90
2017-12-01T01:22:40.761Z,0.90
2017-12-01T01:25:09.073Z,0.80
2017-12-01T01:27:37.402Z,0.80
2017-12-01T01:30:05.749Z,0.90
2017-12-01T01:32:34.038Z,0.80
2017-12-01T01:35:02.327Z,0.90
2017-12-01T01:37:31.437Z,0.80
2017-12-01T01:39:59.748Z,0.80
2017-12-01T01:42:28.829Z,0.90
2017-12-01T01:44:57.136Z,0.80
2017-12-01T01:47:25.516Z,0.90
2017-12-01T01:49:54.629Z,0.90
2017-12-01T01:52:22.917Z,0.90
2017-12-01T01:54:51.222Z,0.90
2017-12-01T01:57:19.532Z,0.90
2017-12-01T01:59:47.813Z,0.90
2017-12-01T02:02:16.143Z,0.90
2017-12-01T02:04:44.489Z,0.90
2017-12-01T02:07:12.789Z,0.90
2017-12-01T02:09:41.124Z,0.90
2017-12-01T02:12:10.178Z,0.90
2017-12-01T02:14:38.477Z,0.80
2017-12-01T02:17:06.862Z,0.90
2017-12-01T02:19:37.135Z,0.80
2017-12-01T02:22:05.541Z,0.80
2017-12-01T02:24:34.973Z,0.80
2017-12-01T02:27:03.303Z,0.90
2017-12-01T02:29:31.621Z,0.80
2017-12-01T02:31:59.926Z,0.90
2017-12-01T02:34:28.218Z,0.80
2017-12-01T02:36:56.682Z,0.80
2017-12-01T02:39:24.994Z,0.80
2017-12-01T02:41:53.320Z,0.90
2017-12-01T02:44:21.713Z,0.80
2017-12-01T02:46:52.024Z,0.80
2017-12-01T02:49:24.612Z,0.80
2017-12-01T02:51:52.902Z,0.80
2017-12-01T02:54:21.187Z,0.80
2017-12-01T02:56:49.499Z,0.80
2017-12-01T02:59:17.795Z,0.80
2017-12-01T03:01:47.140Z,0.80
2017-12-01T03:04:15.487Z,0.80
2017-12-01T03:06:44.587Z,0.80
2017-12-01T03:09:12.878Z,0.70
2017-12-01T03:11:41.210Z,0.80
2017-12-01T03:14:21.468Z,0.80
2017-12-01T03:16:49.802Z,0.80
2017-12-01T03:19:18.855Z,0.80
2017-12-01T03:21:59.111Z,0.70
2017-12-01T03:24:28.182Z,0.80
2017-12-01T03:26:56.490Z,0.70
2017-12-01T03:29:24.814Z,0.80
2017-12-01T03:31:53.111Z,0.80
2017-12-01T03:34:22.243Z,0.80
2017-12-01T03:36:50.534Z,0.70
2017-12-01T03:39:18.831Z,0.80
2017-12-01T03:41:47.155Z,0.80
2017-12-01T03:44:15.474Z,0.80
2017-12-01T03:46:43.801Z,0.80
2017-12-01T03:49:12.130Z,0.80
2017-12-01T03:51:40.458Z,0.80
2017-12-01T03:54:08.811Z,0.70
2017-12-01T03:56:37.144Z,0.70
2017-12-01T03:59:07.172Z,0.70
2017-12-01T04:01:36.602Z,0.60
2017-12-01T04:04:04.955Z,0.60
2017-12-01T04:06:33.353Z,0.60
2017-12-01T04:09:01.804Z,0.60
2017-12-01T04:11:30.144Z,0.50
2017-12-01T04:13:58.436Z,0.50
2017-12-01T04:16:26.744Z,0.50
2017-12-01T04:18:55.070Z,0.50
2017-12-01T04:21:24.146Z,0.40
2017-12-01T04:23:52.443Z,0.40
2017-12-01T04:26:20.790Z,0.40
2017-12-01T04:28:49.204Z,0.40
2017-12-01T04:31:17.514Z,0.40
2017-12-01T04:33:46.628Z,0.30
2017-12-01T04:36:14.938Z,0.20
2017-12-01T04:38:43.231Z,0.30
2017-12-01T04:41:12.341Z,0.20
2017-12-01T04:43:40.724Z,0.20
2017-12-01T04:46:09.066Z,0.20
2017-12-01T04:48:38.110Z,0.20
2017-12-01T04:51:06.431Z,0.20
2017-12-01T04:53:34.867Z,0.10
2017-12-01T04:56:03.235Z,0.10
2017-12-01T04:58:31.543Z,0.10
2017-12-01T05:00:59.922Z,0.10
2017-12-01T05:03:31.251Z,0.00
2017-12-01T05:05:59.560Z,0.00
2017-12-01T05:08:27.855Z,0.00
2017-12-01T05:10:56.178Z,0.00
2017-12-01T05:13:26.256Z,0.00
2017-12-01T05:15:54.607Z,-0.10
2017-12-01T05:18:22.891Z,0.00
2017-12-01T05:20:51.224Z,0.00
2017-12-01T05:23:19.569Z,-0.10
2017-12-01T05:25:47.991Z,-0.10
2017-12-01T05:28:24.021Z,-0.10
2017-12-01T05:30:52.427Z,-0.10
2017-12-01T05:33:21.524Z,-0.10
2017-12-01T05:35:49.814Z,-0.20
2017-12-01T05:38:18.140Z,-0.20
2017-12-01T05:40:46.481Z,-0.10
2017-12-01T05:43:17.590Z,-0.20
2017-12-01T05:45:45.892Z,-0.30
2017-12-01T05:48:14.228Z,-0.20
2017-12-01T05:50:42.624Z,-0.20
2017-12-01T05:53:10.931Z,-0.30
2017-12-01T05:55:39.292Z,-0.30
2017-12-01T05:58:07.635Z,-0.30
2017-12-01T06:00:36.056Z,-0.30
2017-12-01T06:03:05.400Z,-0.30
2017-12-01T06:05:33.770Z,-0.40
2017-12-01T06:08:02.082Z,-0.40
2017-12-01T06:10:30.465Z,-0.40
2017-12-01T06:13:01.884Z,-0.40
2017-12-01T06:15:30.273Z,-0.40
2017-12-01T06:18:03.543Z,-0.40
2017-12-01T06:20:31.899Z,-0.40
2017-12-01T06:23:08.763Z,-0.40
2017-12-01T06:25:37.094Z,-0.40
2017-12-01T06:28:05.443Z,-0.40
2017-12-01T06:30:33.778Z,-0.40
2017-12-01T06:33:02.090Z,-0.40
2017-12-01T06:35:30.430Z,-0.30
2017-12-01T06:37:59.507Z,-0.20
2017-12-01T06:40:27.853Z,-0.30
2017-12-01T06:42:56.177Z,-0.20
2017-12-01T06:45:24.502Z,-0.20
2017-12-01T06:47:53.130Z,-0.10
2017-12-01T06:50:21.635Z,-0.10
2017-12-01T06:52:50.176Z,0.00
2017-12-01T06:55:18.528Z,0.00
2017-12-01T06:57:46.822Z,0.10
2017-12-01T07:00:15.111Z,0.00
2017-12-01T07:02:44.230Z,0.10
2017-12-01T07:05:12.573Z,0.00
2017-12-01T07:07:40.918Z,0.10
2017-12-01T07:10:22.704Z,0.10
2017-12-01T07:12:51.784Z,0.10
2017-12-01T07:15:21.852Z,0.10
2017-12-01T07:17:50.179Z,0.10
2017-12-01T07:20:24.553Z,0.20
2017-12-01T07:22:53.695Z,0.10
2017-12-01T07:25:22.060Z,0.10
2017-12-01T07:27:57.647Z,0.10
2017-12-01T07:30:25.979Z,0.10
2017-12-01T07:32:55.060Z,0.00
2017-12-01T07:35:30.277Z,0.00
2017-12-01T07:37:59.634Z,0.00
2017-12-01T07:40:27.987Z,0.00
2017-12-01T07:42:56.299Z,0.00
2017-12-01T07:45:27.864Z,0.10
2017-12-01T07:47:56.167Z,0.00
2017-12-01T07:50:24.481Z,0.10
2017-12-01T07:52:52.851Z,0.20
2017-12-01T07:55:21.164Z,0.20
2017-12-01T07:57:49.779Z,0.30
2017-12-01T08:00:19.104Z,0.30
2017-12-01T08:02:47.430Z,0.40
2017-12-01T08:05:15.760Z,0.40
2017-12-01T08:07:44.548Z,0.50
2017-12-01T08:10:13.214Z,0.50
2017-12-01T08:12:41.532Z,0.50
2017-12-01T08:15:11.556Z,0.50
2017-12-01T08:17:39.890Z,0.50
2017-12-01T08:20:09.149Z,0.60
2017-12-01T08:22:52.270Z,0.60
2017-12-01T08:25:32.158Z,0.60
2017-12-01T08:28:01.315Z,0.70
2017-12-01T08:30:29.851Z,0.70
2017-12-01T08:32:58.247Z,0.70
2017-12-01T08:35:26.530Z,0.80
2017-12-01T08:37:54.866Z,0.80
2017-12-01T08:40:23.192Z,0.80
2017-12-01T08:42:51.515Z,0.80
2017-12-01T08:45:34.167Z,0.80
2017-12-01T08:48:02.543Z,0.90
2017-12-01T08:50:30.856Z,0.80
2017-12-01T08:52:59.927Z,0.70
2017-12-01T08:55:28.240Z,0.70
2017-12-01T08:57:56.566Z,0.80
2017-12-01T09:00:24.927Z,0.80
2017-12-01T09:02:53.332Z,0.90
2017-12-01T09:05:21.629Z,0.90
2017-12-01T09:07:50.089Z,0.90
2017-12-01T09:10:18.462Z,0.90
2017-12-01T09:12:46.792Z,1.00
2017-12-01T09:15:15.153Z,1.20
2017-12-01T09:17:44.329Z,1.60
2017-12-01T09:20:12.669Z,1.90
2017-12-01T09:22:40.985Z,2.10
2017-12-01T09:25:09.287Z,2.00
2017-12-01T09:27:38.407Z,2.00
2017-12-01T09:30:07.138Z,2.00
2017-12-01T09:32:36.539Z,2.20
2017-12-01T09:35:04.893Z,2.60
2017-12-01T09:37:33.426Z,2.90
2017-12-01T09:40:01.692Z,3.30
2017-12-01T09:42:30.904Z,3.50
2017-12-01T09:45:00.394Z,3.70
2017-12-01T09:47:28.653Z,3.90
2017-12-01T09:49:57.061Z,4.10
2017-12-01T09:52:25.452Z,4.30
2017-12-01T09:54:55.822Z,4.60
2017-12-01T09:57:24.159Z,4.50
2017-12-01T09:59:52.486Z,4.60
2017-12-01T10:02:21.581Z,5.00
2017-12-01T10:04:49.915Z,5.00
2017-12-01T10:07:18.326Z,5.30
2017-12-01T10:09:46.663Z,5.70
2017-12-01T10:12:15.711Z,5.60
2017-12-01T10:14:44.035Z,5.50
2017-12-01T10:17:13.091Z,5.60
2017-12-01T10:19:41.582Z,5.40
2017-12-01T10:22:11.896Z,5.30
2017-12-01T10:24:40.195Z,5.50
2017-12-01T10:27:08.498Z,5.70
2017-12-01T10:29:37.083Z,5.70
2017-12-01T10:32:05.476Z,5.40
2017-12-01T10:34:33.779Z,5.00
2017-12-01T10:37:03.216Z,4.40
2017-12-01T10:39:31.547Z,4.10
2017-12-01T10:42:00.665Z,3.70
2017-12-01T10:44:32.102Z,3.70
2017-12-01T10:47:00.456Z,3.70
2017-12-01T10:49:29.748Z,3.50
2017-12-01T10:51:58.077Z,3.50
2017-12-01T10:54:26.411Z,3.30
2017-12-01T10:56:54.776Z,3.10
2017-12-01T10:59:24.073Z,3.00
2017-12-01T11:01:52.403Z,2.90
2017-12-01T11:04:20.778Z,2.80
2017-12-01T11:06:49.073Z,2.80
2017-12-01T11:09:17.379Z,2.80
2017-12-01T11:11:45.722Z,2.70
2017-12-01T11:14:14.040Z,2.70
2017-12-01T11:16:43.273Z,2.70
2017-12-01T11:19:15.387Z,2.80
2017-12-01T11:21:43.736Z,2.70
2017-12-01T11:24:12.057Z,2.70
2017-12-01T11:26:40.435Z,2.90
2017-12-01T11:29:08.782Z,3.00
2017-12-01T11:31:37.139Z,3.10
2017-12-01T11:34:05.495Z,3.10
2017-12-01T11:36:34.649Z,3.40
2017-12-01T11:39:03.003Z,3.30
2017-12-01T11:41:31.324Z,3.50
2017-12-01T11:43:59.620Z,3.50
2017-12-01T11:46:27.979Z,3.60
2017-12-01T11:48:56.324Z,3.60
2017-12-01T11:51:24.626Z,3.60
2017-12-01T11:53:52.929Z,3.60
2017-12-01T11:56:21.277Z,3.50
2017-12-01T11:58:49.563Z,3.50
2017-12-01T12:01:17.906Z,3.40
2017-12-01T12:03:46.223Z,3.40
2017-12-01T12:06:14.795Z,3.30
2017-12-01T12:08:43.325Z,3.20
2017-12-01T12:11:16.763Z,3.10
2017-12-01T12:13:45.086Z,3.00
2017-12-01T12:16:13.444Z,3.00
2017-12-01T12:18:41.780Z,2.90
2017-12-01T12:21:10.108Z,2.90
2017-12-01T12:23:39.463Z,2.90
2017-12-01T12:26:09.541Z,2.80
2017-12-01T12:28:43.068Z,2.80
2017-12-01T12:31:11.368Z,2.80
2017-12-01T12:33:39.691Z,2.80
2017-12-01T12:36:25.004Z,2.90
2017-12-01T12:38:54.108Z,3.20
2017-12-01T12:41:22.403Z,3.20
2017-12-01T12:43:50.703Z,3.40
2017-12-01T12:46:19.802Z,3.90
2017-12-01T12:48:48.227Z,3.80
2017-12-01T12:51:40.302Z,3.80
2017-12-01T12:54:08.667Z,3.70
2017-12-01T12:56:44.454Z,3.50
2017-12-01T12:59:19.056Z,3.30
2017-12-01T13:01:47.423Z,3.10
2017-12-01T13:04:15.905Z,3.00
2017-12-01T13:08:57.567Z,3.00
2017-12-01T13:11:25.999Z,3.00
2017-12-01T13:14:10.510Z,2.90
2017-12-01T13:16:59.916Z,2.80
2017-12-01T13:19:32.093Z,2.80
2017-12-01T13:22:01.752Z,2.80
2017-12-01T13:24:30.871Z,2.80
2017-12-01T13:27:00.997Z,2.70
2017-12-01T13:29:29.326Z,2.70
2017-12-01T13:31:58.575Z,2.70
2017-12-01T13:34:39.906Z,2.70
2017-12-01T13:37:08.216Z,2.70
2017-12-01T13:39:36.516Z,2.70
2017-12-01T13:42:05.555Z,2.70
2017-12-01T13:44:36.583Z,2.70
2017-12-01T13:47:04.938Z,2.60
2017-12-01T13:49:41.694Z,2.60
2017-12-01T13:52:09.966Z,2.60
2017-12-01T13:54:38.287Z,2.50
2017-12-01T13:57:06.812Z,2.50
2017-12-01T13:59:35.966Z,2.40
2017-12-01T14:02:05.247Z,2.50
2017-12-01T14:04:33.551Z,2.40
2017-12-01T14:07:01.851Z,2.40
2017-12-01T14:09:32.529Z,2.40
2017-12-01T14:12:00.828Z,2.40
2017-12-01T14:14:30.685Z,2.30
2017-12-01T14:16:59.091Z,2.30
2017-12-01T14:19:27.459Z,2.30
2017-12-01T14:21:55.796Z,2.30
2017-12-01T14:24:24.106Z,2.20
2017-12-01T14:26:52.403Z,2.20
2017-12-01T14:29:20.724Z,2.20
2017-12-01T14:31:49.064Z,2.20
2017-12-01T14:34:18.843Z,2.20
2017-12-01T14:36:48.114Z,2.20
2017-12-01T14:39:16.450Z,2.10
2017-12-01T14:41:44.751Z,2.10
2017-12-01T14:44:13.813Z,2.00
2017-12-01T14:46:44.110Z,2.00
2017-12-01T14:49:12.395Z,2.00
2017-12-01T14:51:40.726Z,1.90
2017-12-01T14:54:09.822Z,1.90
2017-12-01T14:56:38.123Z,1.90
2017-12-01T14:59:06.430Z,1.90
2017-12-01T15:01:34.753Z,1.90
2017-12-01T15:04:03.882Z,1.90
2017-12-01T15:06:33.214Z,1.90
2017-12-01T15:09:01.498Z,1.90
2017-12-01T15:11:30.612Z,1.90
2017-12-01T15:13:58.898Z,1.90
2017-12-01T15:16:27.223Z,1.90
2017-12-01T15:18:55.531Z,1.90
2017-12-01T15:21:24.642Z,1.80
2017-12-01T15:23:52.985Z,1.80
2017-12-01T15:26:21.255Z,1.80
2017-12-01T15:28:50.548Z,1.70
2017-12-01T15:31:18.847Z,1.70
2017-12-01T15:33:47.174Z,1.70
2017-12-01T15:36:15.458Z,1.60
2017-12-01T15:38:43.790Z,1.70
2017-12-01T15:41:12.088Z,1.70
2017-12-01T15:43:40.365Z,1.60
2017-12-01T15:46:08.686Z,1.60
2017-12-01T15:48:36.979Z,1.60
2017-12-01T15:51:05.294Z,1.70
2017-12-01T15:53:34.374Z,1.60
2017-12-01T15:56:02.758Z,1.60
2017-12-01T15:58:31.135Z,1.60
2017-12-01T16:00:59.436Z,1.60
2017-12-01T16:03:27.714Z,1.50
2017-12-01T16:05:56.022Z,1.60
2017-12-01T16:08:24.333Z,1.50
2017-12-01T16:10:52.622Z,1.60
2017-12-01T16:13:21.858Z,1.60
2017-12-01T16:15:50.170Z,1.60
2017-12-01T16:18:18.469Z,1.60
2017-12-01T16:20:46.770Z,1.60
2017-12-01T16:23:15.082Z,1.60
2017-12-01T16:25:44.131Z,1.60
2017-12-01T16:28:12.406Z,1.60
2017-12-01T16:30:40.702Z,1.60
2017-12-01T16:33:09.761Z,1.60
2017-12-01T16:35:38.093Z,1.60
2017-12-01T16:38:06.384Z,1.60
2017-12-01T16:40:34.694Z,1.60
2017-12-01T16:43:03.048Z,1.60
2017-12-01T16:45:31.373Z,1.60
2017-12-01T16:47:59.687Z,1.60
2017-12-01T16:50:27.964Z,1.70
2017-12-01T16:52:56.281Z,1.70
2017-12-01T16:55:24.577Z,1.70
2017-12-01T16:57:52.867Z,1.70
2017-12-01T17:00:21.178Z,1.70
2017-12-01T17:02:49.455Z,1.70
2017-12-01T17:05:17.752Z,1.70
2017-12-01T17:07:46.868Z,1.70
2017-12-01T17:10:15.964Z,1.70
2017-12-01T17:12:44.254Z,1.60
2017-12-01T17:15:12.539Z,1.60
2017-12-01T17:17:40.850Z,1.70
2017-12-01T17:20:09.142Z,1.70
2017-12-01T17:22:37.438Z,1.60
2017-12-01T17:25:05.769Z,1.70
2017-12-01T17:27:34.074Z,1.60
2017-12-01T17:30:02.375Z,1.60
2017-12-01T17:32:30.692Z,1.60
2017-12-01T17:34:59.753Z,1.70
2017-12-01T17:37:28.041Z,1.70
2017-12-01T17:40:02.322Z,1.70
2017-12-01T17:42:30.654Z,1.70
2017-12-01T17:44:59.745Z,1.70
2017-12-01T17:47:28.844Z,1.70
2017-12-01T17:49:57.977Z,1.60
2017-12-01T17:52:26.283Z,1.60
2017-12-01T17:54:54.603Z,1.60
2017-12-01T17:57:22.936Z,1.60
2017-12-01T17:59:51.225Z,1.50
2017-12-01T18:02:19.548Z,1.50
2017-12-01T18:04:47.877Z,1.40
2017-12-01T18:07:16.178Z,1.40
2017-12-01T18:09:45.252Z,1.30
2017-12-01T18:12:13.585Z,1.20
2017-12-01T18:14:41.890Z,1.20
2017-12-01T18:17:10.221Z,1.10
2017-12-01T18:19:38.588Z,1.10
2017-12-01T18:22:06.894Z,1.00
2017-12-01T18:24:35.206Z,1.00
2017-12-01T18:27:03.539Z,0.90
2017-12-01T18:29:31.875Z,0.80
2017-12-01T18:32:00.943Z,0.80
2017-12-01T18:34:29.252Z,0.70
2017-12-01T18:36:57.565Z,0.80
2017-12-01T18:39:25.856Z,0.70
2017-12-01T18:41:54.200Z,0.60
2017-12-01T18:44:23.554Z,0.60
2017-12-01T18:46:51.892Z,0.50
2017-12-01T18:49:20.219Z,0.50
2017-12-01T18:51:48.580Z,0.50
2017-12-01T18:54:16.896Z,0.50
2017-12-01T18:56:45.957Z,0.40
2017-12-01T18:59:14.331Z,0.40
2017-12-01T19:01:42.630Z,0.40
2017-12-01T19:04:10.934Z,0.40
2017-12-01T19:06:39.277Z,0.40
2017-12-01T19:09:07.586Z,0.40
2017-12-01T19:11:35.909Z,0.30
2017-12-01T19:14:04.202Z,0.30
2017-12-01T19:16:32.519Z,0.30
2017-12-01T19:19:01.563Z,0.20
2017-12-01T19:21:29.884Z,0.20
2017-12-01T19:23:58.965Z,0.10
2017-12-01T19:26:28.030Z,0.10
2017-12-01T19:28:56.352Z,0.10
2017-12-01T19:31:25.426Z,0.00
2017-12-01T19:33:53.760Z,0.00
2017-12-01T19:36:22.105Z,0.00
2017-12-01T19:38:50.413Z,0.00
2017-12-01T19:41:18.752Z,-0.10
2017-12-01T19:43:47.817Z,-0.10
2017-12-01T19:46:16.199Z,-0.10
2017-12-01T19:48:48.153Z,-0.10
2017-12-01T19:51:16.501Z,-0.10
2017-12-01T19:53:44.856Z,-0.10
2017-12-01T19:56:13.222Z,-0.10
2017-12-01T19:58:42.282Z,-0.10
2017-12-01T20:01:11.409Z,0.00
2017-12-01T20:03:40.504Z,0.00
2017-12-01T20:06:09.574Z,0.00
2017-12-01T20:08:37.911Z,0.00
2017-12-01T20:11:06.214Z,0.10
2017-12-01T20:13:34.540Z,0.20
2017-12-01T20:16:02.849Z,0.20
2017-12-01T20:18:32.282Z,0.20
2017-12-01T20:21:01.425Z,0.30
2017-12-01T20:23:29.746Z,0.30
2017-12-01T20:25:58.048Z,0.40
2017-12-01T20:28:27.294Z,0.40
2017-12-01T20:30:55.625Z,0.40
2017-12-01T20:33:24.155Z,0.40
2017-12-01T20:35:53.517Z,0.50
2017-12-01T20:38:22.832Z,0.50
2017-12-01T20:40:51.242Z,0.50
2017-12-01T20:43:20.347Z,0.60
2017-12-01T20:45:49.578Z,0.60
2017-12-01T20:48:18.649Z,0.70
2017-12-01T20:50:47.215Z,0.60
2017-12-01T20:53:15.682Z,0.70
2017-12-01T20:55:44.806Z,0.70
2017-12-01T20:58:13.257Z,0.70
2017-12-01T21:00:41.623Z,0.70
2017-12-01T21:03:10.268Z,0.70
2017-12-01T21:05:38.567Z,0.60
2017-12-01T21:08:06.904Z,0.60
2017-12-01T21:10:35.215Z,0.60
2017-12-01T21:13:04.642Z,0.60
2017-12-01T21:15:32.976Z,0.50
2017-12-01T21:18:01.286Z,0.50
2017-12-01T21:20:29.625Z,0.60
2017-12-01T21:22:57.937Z,0.50
2017-12-01T21:25:26.306Z,0.50
2017-12-01T21:27:55.574Z,0.40
2017-12-01T21:30:23.906Z,0.40
2017-12-01T21:32:52.228Z,0.40
2017-12-01T21:35:20.605Z,0.40
2017-12-01T21:37:49.095Z,0.30
2017-12-01T21:40:17.531Z,0.40
2017-12-01T21:42:45.858Z,0.30
2017-12-01T21:45:14.150Z,0.20
2017-12-01T21:47:43.249Z,0.10
2017-12-01T21:50:12.420Z,0.10
2017-12-01T21:52:41.637Z,0.00
2017-12-01T21:55:10.952Z,0.00
2017-12-01T21:57:39.599Z,-0.10
2017-12-01T22:00:07.901Z,-0.10
2017-12-01T22:02:37.002Z,-0.10
2017-12-01T22:05:05.336Z,-0.20
2017-12-01T22:07:33.668Z,-0.20
2017-12-01T22:10:01.988Z,-0.20
2017-12-01T22:12:30.323Z,-0.30
2017-12-01T22:14:58.666Z,-0.30
2017-12-01T22:17:26.976Z,-0.40
2017-12-01T22:19:55.312Z,-0.40
2017-12-01T22:22:23.611Z,-0.40
2017-12-01T22:24:52.725Z,-0.40
2017-12-01T22:27:21.080Z,-0.40
2017-12-01T22:29:49.378Z,-0.40
2017-12-01T22:32:17.682Z,-0.40
2017-12-01T22:34:46.023Z,-0.40
2017-12-01T22:37:20.040Z,-0.40
2017-12-01T22:39:48.345Z,-0.40
2017-12-01T22:42:16.735Z,-0.50
2017-12-01T22:44:45.046Z,-0.40
2017-12-01T22:47:13.356Z,-0.50
2017-12-01T22:49:41.697Z,-0.50
2017-12-01T22:52:10.029Z,-0.50
2017-12-01T22:54:38.431Z,-0.50
2017-12-01T22:57:06.749Z,-0.50
2017-12-01T22:59:35.864Z,-0.60
2017-12-01T23:02:04.273Z,-0.60
2017-12-01T23:04:32.637Z,-0.60
2017-12-01T23:07:07.442Z,-0.60
2017-12-01T23:09:35.767Z,-0.60
2017-12-01T23:12:04.100Z,-0.60
2017-12-01T23:14:32.409Z,-0.60
2017-12-01T23:17:00.744Z,-0.60
2017-12-01T23:19:29.072Z,-0.50
2017-12-01T23:21:57.370Z,-0.50
2017-12-01T23:24:26.432Z,-0.50
2017-12-01T23:26:54.746Z,-0.50
2017-12-01T23:29:23.048Z,-0.50
2017-12-01T23:31:51.360Z,-0.50
2017-12-01T23:34:19.652Z,-0.60
2017-12-01T23:36:47.994Z,-0.60
2017-12-01T23:39:16.293Z,-0.70
2017-12-01T23:41:44.668Z,-0.70
2017-12-01T23:44:12.969Z,-0.70
2017-12-01T23:46:41.304Z,-0.70
2017-12-01T23:49:09.628Z,-0.70
2017-12-01T23:51:37.928Z,-0.80
2017-12-01T23:54:07.035Z,-0.80
2017-12-01T23:56:35.333Z,-0.80
2017-12-01T23:59:03.655Z,-0.80
